createdAt,value
2023-04-03T00:00:32.102Z,0.50
2023-04-03T00:05:54.102Z,0.50
2023-04-03T00:11:00.102Z,0.40
2023-04-03T00:16:07.915Z,0.70
2023-04-03T00:21:16.219Z,0.70
2023-04-03T00:26:22.187Z,0.40
2023-04-03T00:31:27.960Z,0.50
2023-04-03T00:36:34.195Z,0.40
2023-04-03T00:41:39.969Z,0.50
2023-04-03T00:46:45.716Z,0.30
2023-04-03T00:51:52.344Z,0.50
2023-04-03T00:56:59.819Z,0.30
2023-04-03T01:02:05.582Z,0.50
2023-04-03T01:07:16.199Z,0.50
2023-04-03T01:12:25.352Z,0.40
2023-04-03T01:17:35.814Z,0.40
2023-04-03T01:22:53.261Z,0.30
2023-04-03T01:27:59.099Z,0.30
2023-04-03T01:33:05.249Z,0.60
2023-04-03T01:38:11.505Z,0.40
2023-04-03T01:43:17.299Z,0.60
2023-04-03T01:48:23.097Z,0.70
2023-04-03T01:53:29.298Z,0.30
2023-04-03T01:58:35.418Z,0.20
2023-04-03T02:03:41.444Z,0.40
2023-04-03T02:08:47.617Z,0.20
2023-04-03T02:13:53.812Z,0.50
2023-04-03T02:19:00.125Z,0.20
2023-04-03T02:24:07.174Z,0.30
2023-04-03T02:29:12.961Z,0.60
2023-04-03T02:34:19.185Z,0.40
2023-04-03T02:39:25.477Z,0.60
2023-04-03T02:44:31.478Z,0.40
2023-04-03T02:49:37.368Z,0.40
2023-04-03T02:54:43.405Z,0.60
2023-04-03T02:59:49.347Z,0.60
2023-04-03T03:04:55.534Z,0.40
2023-04-03T03:10:01.615Z,0.50
2023-04-03T03:15:10.727Z,0.40
2023-04-03T03:20:17.260Z,0.30
2023-04-03T03:25:23.030Z,0.30
2023-04-03T03:30:29.294Z,0.30
2023-04-03T03:35:35.604Z,0.70
2023-04-03T03:40:41.648Z,0.70
2023-04-03T03:45:50.964Z,0.60
2023-04-03T03:50:56.847Z,0.20
2023-04-03T03:56:02.954Z,0.90
2023-04-03T04:01:09.715Z,0.70
2023-04-03T04:06:15.641Z,0.40
2023-04-03T04:11:22.188Z,0.40
2023-04-03T04:16:28.152Z,0.20
2023-04-03T04:21:33.857Z,0.20
2023-04-03T04:26:39.604Z,0.40
2023-04-03T04:31:45.618Z,0.40
2023-04-03T04:36:51.471Z,0.90
2023-04-03T04:41:57.565Z,0.70
2023-04-03T04:47:03.774Z,0.70
2023-04-03T04:52:10.095Z,0.60
2023-04-03T04:57:16.274Z,0.50
2023-04-03T05:02:22.153Z,0.70
2023-04-03T05:07:28.416Z,0.40
2023-04-03T05:12:35.408Z,0.50
2023-04-03T05:17:41.430Z,0.40
2023-04-03T05:22:47.266Z,0.60
2023-04-03T05:27:53.366Z,0.40
2023-04-03T05:32:59.495Z,0.60
2023-04-03T05:38:05.485Z,0.30
2023-04-03T05:43:11.561Z,0.40
2023-04-03T05:48:17.535Z,0.40
2023-04-03T05:53:28.961Z,0.90
2023-04-03T05:58:34.946Z,0.60
2023-04-03T06:03:41.323Z,0.40
2023-04-03T06:08:51.656Z,0.50
2023-04-03T06:13:57.921Z,0.30
2023-04-03T06:19:04.740Z,0.70
2023-04-03T06:24:12.658Z,0.80
2023-04-03T06:29:18.835Z,0.70
2023-04-03T06:34:25.379Z,1.10
2023-04-03T06:39:31.313Z,0.50
2023-04-03T06:44:37.754Z,0.70
2023-04-03T06:49:43.609Z,0.60
2023-04-03T06:54:49.578Z,0.50
2023-04-03T06:59:55.501Z,0.50
2023-04-03T07:05:01.589Z,0.40
2023-04-03T07:10:10.731Z,0.70
2023-04-03T07:15:16.630Z,0.40
2023-04-03T07:20:22.990Z,0.50
2023-04-03T07:25:28.958Z,0.40
2023-04-03T07:30:34.908Z,0.30
2023-04-03T07:35:41.044Z,0.30
2023-04-03T07:40:51.721Z,0.50
2023-04-03T07:45:57.845Z,0.80
2023-04-03T07:51:05.882Z,0.60
2023-04-03T07:56:12.334Z,0.60
2023-04-03T08:01:18.125Z,0.70
2023-04-03T08:06:37.423Z,0.80
2023-04-03T08:11:49.801Z,0.70
2023-04-03T08:16:55.746Z,0.60
2023-04-03T08:22:03.607Z,0.70
2023-04-03T08:27:12.831Z,0.40
2023-04-03T08:32:20.032Z,0.70
2023-04-03T08:37:31.929Z,0.60
2023-04-03T08:43:16.437Z,0.80
2023-04-03T08:48:34.918Z,0.40
2023-04-03T08:53:46.412Z,0.60
2023-04-03T08:58:59.452Z,0.50
2023-04-03T09:04:13.782Z,0.70
2023-04-03T09:09:33.805Z,0.70
2023-04-03T09:14:47.190Z,0.50
2023-04-03T09:20:03.925Z,0.70
2023-04-03T09:25:17.363Z,0.50
2023-04-03T09:30:26.138Z,0.40
2023-04-03T09:35:44.843Z,0.70
2023-04-03T09:41:08.662Z,0.60
2023-04-03T09:46:30.345Z,0.90
2023-04-03T09:51:36.435Z,0.70
2023-04-03T09:56:42.537Z,0.60
2023-04-03T10:02:03.341Z,0.90
2023-04-03T10:07:35.036Z,0.60
2023-04-03T10:12:41.309Z,0.90
2023-04-03T10:17:59.293Z,0.60
2023-04-03T10:23:20.613Z,0.60
2023-04-03T10:28:37.115Z,0.60
2023-04-03T10:34:05.910Z,2.90
2023-04-03T10:39:24.887Z,1.90
2023-04-03T10:44:43.142Z,0.40
2023-04-03T10:50:01.933Z,0.80
2023-04-03T10:55:29.195Z,0.60
2023-04-03T11:00:43.200Z,0.70
2023-04-03T11:05:54.895Z,0.50
2023-04-03T11:11:04.660Z,0.70
2023-04-03T11:16:14.343Z,0.70
2023-04-03T11:21:30.240Z,0.70
2023-04-03T11:26:42.906Z,0.90
2023-04-03T11:32:09.858Z,1.00
2023-04-03T11:37:34.395Z,0.60
2023-04-03T11:42:43.269Z,1.10
2023-04-03T11:47:51.323Z,0.80
2023-04-03T11:53:04.324Z,0.90
2023-04-03T11:58:18.142Z,0.70
2023-04-03T12:04:11.313Z,0.60
2023-04-03T12:09:33.476Z,0.70
2023-04-03T12:14:39.415Z,0.70
2023-04-03T12:19:47.185Z,0.60
2023-04-03T12:24:55.193Z,0.60
2023-04-03T12:30:14.278Z,0.80
2023-04-03T12:35:34.591Z,0.80
2023-04-03T12:40:53.423Z,1.10
2023-04-03T12:46:12.679Z,0.90
2023-04-03T12:51:22.118Z,0.70
2023-04-03T12:56:32.195Z,2.20
2023-04-03T13:01:39.424Z,0.70
2023-04-03T13:06:46.823Z,1.20
2023-04-03T13:12:01.115Z,1.00
2023-04-03T13:17:16.080Z,1.30
2023-04-03T13:22:33.353Z,0.80
2023-04-03T13:27:43.011Z,0.90
2023-04-03T13:32:48.788Z,1.10
2023-04-03T13:38:00.239Z,1.00
2023-04-03T13:43:20.911Z,1.50
2023-04-03T13:48:27.584Z,1.10
2023-04-03T13:53:35.358Z,1.20
2023-04-03T13:58:54.280Z,0.90
2023-04-03T14:04:03.403Z,1.40
2023-04-03T14:09:09.050Z,1.10
2023-04-03T14:14:20.808Z,0.80
2023-04-03T14:19:31.048Z,1.00
2023-04-03T14:24:36.878Z,0.90
2023-04-03T14:29:42.792Z,0.90
2023-04-03T14:34:51.198Z,1.20
2023-04-03T14:39:59.024Z,0.80
2023-04-03T14:45:11.253Z,0.40
2023-04-03T14:50:22.117Z,1.20
2023-04-03T14:55:29.583Z,0.80
2023-04-03T15:00:35.396Z,0.60
2023-04-03T15:05:41.265Z,2.10
2023-04-03T15:10:47.044Z,2.40
2023-04-03T15:15:53.347Z,1.20
2023-04-03T15:20:59.216Z,2.30
2023-04-03T15:26:05.948Z,2.20
2023-04-03T15:31:12.205Z,2.50
2023-04-03T15:41:28.644Z,3.10
2023-04-03T15:46:34.666Z,1.50
2023-04-03T15:51:40.461Z,1.80
2023-04-03T15:56:46.584Z,1.40
2023-04-03T16:01:53.951Z,1.80
2023-04-03T16:07:01.824Z,1.40
2023-04-03T16:12:07.712Z,1.20
2023-04-03T16:17:13.618Z,1.00
2023-04-03T16:22:19.374Z,2.30
2023-04-03T16:27:28.313Z,1.60
2023-04-03T16:32:35.602Z,1.40
2023-04-03T16:37:42.083Z,1.40
2023-04-03T16:42:48.142Z,2.10
2023-04-03T16:47:54.455Z,1.80
2023-04-03T16:53:00.566Z,1.60
2023-04-03T16:58:06.380Z,2.50
2023-04-03T17:03:12.770Z,1.50
2023-04-03T17:08:20.244Z,1.90
2023-04-03T17:13:31.732Z,1.30
2023-04-03T17:18:38.522Z,1.00
2023-04-03T17:23:48.259Z,1.80
2023-04-03T17:28:54.514Z,1.20
2023-04-03T17:34:01.825Z,1.60
2023-04-03T17:39:08.240Z,1.40
2023-04-03T17:44:14.632Z,2.10
2023-04-03T17:49:22.017Z,1.90
2023-04-03T17:54:27.901Z,0.80
2023-04-03T17:59:34.393Z,1.60
2023-04-03T18:04:40.567Z,1.70
2023-04-03T18:09:49.490Z,1.30
2023-04-03T18:14:55.233Z,1.00
2023-04-03T18:20:01.125Z,1.20
2023-04-03T18:25:10.406Z,1.80
2023-04-03T18:30:18.754Z,1.50
2023-04-03T18:35:24.522Z,1.00
2023-04-03T18:40:30.656Z,1.00
2023-04-03T18:45:36.666Z,1.20
2023-04-03T18:50:43.320Z,1.30
2023-04-03T18:55:49.400Z,1.60
2023-04-03T19:00:55.405Z,2.50
2023-04-03T19:06:02.229Z,3.20
2023-04-03T19:11:07.910Z,1.40
2023-04-03T19:16:13.879Z,2.50
2023-04-03T19:21:20.128Z,2.70
2023-04-03T19:26:26.967Z,2.80
2023-04-03T19:31:33.217Z,2.00
2023-04-03T19:36:39.667Z,3.00
2023-04-03T19:41:45.891Z,1.60
2023-04-03T19:46:52.577Z,2.10
2023-04-03T19:51:58.453Z,2.30
2023-04-03T19:57:04.643Z,2.20
2023-04-03T20:02:10.711Z,2.30
2023-04-03T20:07:17.107Z,2.80
2023-04-03T20:12:23.081Z,2.40
2023-04-03T20:17:29.088Z,3.00
2023-04-03T20:22:37.444Z,3.20
2023-04-03T20:27:43.272Z,1.80
2023-04-03T20:32:49.546Z,1.80
2023-04-03T20:37:55.399Z,1.80
2023-04-03T20:43:01.665Z,1.50
2023-04-03T20:48:08.496Z,2.50
2023-04-03T20:53:17.603Z,2.50
2023-04-03T20:58:24.675Z,2.70
2023-04-03T21:03:32.001Z,2.00
2023-04-03T21:09:31.219Z,2.80
2023-04-03T21:15:31.228Z,2.00
2023-04-03T21:20:37.398Z,2.10
2023-04-03T21:25:43.309Z,2.00
2023-04-03T21:30:49.443Z,1.90
2023-04-03T21:35:58.271Z,1.80
2023-04-03T21:41:04.617Z,1.00
2023-04-03T21:46:10.199Z,1.80
2023-04-03T21:51:16.825Z,1.20
2023-04-03T21:56:23.871Z,0.90
2023-04-03T22:01:30.040Z,1.30
2023-04-03T22:06:36.976Z,1.60
2023-04-03T22:11:45.512Z,1.50
2023-04-03T22:16:52.245Z,0.90
2023-04-03T22:21:57.998Z,0.60
2023-04-03T22:27:03.730Z,0.80
2023-04-03T22:32:09.697Z,0.30
2023-04-03T22:37:15.316Z,0.80
2023-04-03T22:42:21.143Z,0.70
2023-04-03T22:47:27.454Z,0.90
2023-04-03T22:52:33.270Z,0.70
2023-04-03T22:57:38.847Z,0.70
2023-04-03T23:02:45.198Z,0.90
2023-04-03T23:07:51.018Z,0.60
2023-04-03T23:12:56.855Z,0.70
2023-04-03T23:18:02.699Z,0.50
2023-04-03T23:23:08.480Z,0.60
2023-04-03T23:28:14.709Z,0.60
2023-04-03T23:33:21.068Z,0.80
2023-04-03T23:38:27.045Z,0.40
2023-04-03T23:43:32.896Z,0.40
2023-04-03T23:48:38.616Z,0.40
2023-04-03T23:53:44.237Z,0.50
2023-04-03T23:58:51.234Z,0.70
